Time;durP1;ratioP1;P1;durP2;ratioP2;P2;SDS_P1;SDS_P2;PMS_P1;PMS_P2;Temp;Humidity;BMP_temperature;BMP_pressure;BME280_temperature;BME280_humidity;BME280_pressure;Samples;Min_cycle;Max_cycle;Signal;HPM_P1;HPM_P2
2024/01/16 00:00:16;;;;;;;15.80;5.68;;;1.40;99.90;;;;;;5070641;28;20017;-69
2024/01/16 00:02:42;;;;;;;12.60;5.80;;;1.40;99.90;;;;;;5074020;28;20028;-70
2024/01/16 00:05:09;;;;;;;8.90;4.85;;;1.30;99.90;;;;;;5077710;28;20102;-71
2024/01/16 00:07:38;;;;;;;14.48;5.20;;;1.30;99.90;;;;;;5075052;28;20028;-72
2024/01/16 00:10:06;;;;;;;9.43;4.53;;;1.20;99.90;;;;;;5074688;28;20029;-72
2024/01/16 00:12:32;;;;;;;11.05;4.57;;;1.10;99.90;;;;;;5074886;28;20089;-72
2024/01/16 00:14:57;;;;;;;14.55;4.53;;;1.10;99.90;;;;;;5074238;28;20464;-72
2024/01/16 00:17:23;;;;;;;11.50;4.88;;;1.20;99.90;;;;;;5074617;28;20031;-71
2024/01/16 00:19:49;;;;;;;12.45;4.18;;;1.20;99.90;;;;;;5076922;28;20031;-71
2024/01/16 00:22:14;;;;;;;12.50;4.65;;;1.20;99.90;;;;;;5077461;28;20051;-71
2024/01/16 00:24:40;;;;;;;8.13;4.20;;;1.20;99.90;;;;;;5076306;28;20040;-70
2024/01/16 00:27:06;;;;;;;10.80;4.55;;;1.20;99.90;;;;;;5075714;28;20460;-72
2024/01/16 00:29:31;;;;;;;12.98;4.78;;;1.20;99.90;;;;;;5076005;28;20032;-70
2024/01/16 00:31:57;;;;;;;11.93;3.92;;;1.20;99.90;;;;;;5074625;28;20024;-71
2024/01/16 00:34:22;;;;;;;12.38;5.00;;;1.20;99.90;;;;;;5074743;28;20044;-71
2024/01/16 00:36:48;;;;;;;11.57;4.40;;;1.20;99.90;;;;;;5075829;28;20556;-71
2024/01/16 00:39:14;;;;;;;10.60;4.47;;;1.20;99.90;;;;;;5074130;28;20021;-71
2024/01/16 00:41:39;;;;;;;12.43;5.88;;;1.20;99.90;;;;;;5074571;28;20379;-73
2024/01/16 00:44:05;;;;;;;12.57;5.10;;;1.20;99.90;;;;;;5074126;28;20060;-71
2024/01/16 00:46:30;;;;;;;12.52;5.85;;;1.20;99.90;;;;;;5072622;28;20024;-71
2024/01/16 00:48:56;;;;;;;10.50;4.80;;;1.20;99.90;;;;;;5073584;28;20178;-71
2024/01/16 00:51:22;;;;;;;12.23;5.07;;;1.30;99.90;;;;;;5073549;28;20138;-70
2024/01/16 00:53:47;;;;;;;11.38;5.13;;;1.30;99.90;;;;;;5073734;28;20046;-73
2024/01/16 00:56:13;;;;;;;18.38;5.97;;;1.30;99.90;;;;;;5073877;28;20021;-70
2024/01/16 00:58:39;;;;;;;15.27;5.40;;;1.20;99.90;;;;;;5089184;28;20024;-71
2024/01/16 01:01:04;;;;;;;16.55;5.47;;;1.20;99.90;;;;;;5076549;28;20443;-71
2024/01/16 01:03:30;;;;;;;11.95;5.60;;;1.20;99.90;;;;;;5081734;28;20024;-71
2024/01/16 01:05:57;;;;;;;13.23;5.50;;;1.20;99.90;;;;;;5090857;28;20051;-72
2024/01/16 01:08:22;;;;;;;14.90;5.85;;;1.20;99.90;;;;;;5077255;28;20012;-72
2024/01/16 01:10:48;;;;;;;10.88;5.32;;;1.20;99.90;;;;;;5075838;28;20046;-72
2024/01/16 01:13:13;;;;;;;10.68;5.35;;;1.30;99.90;;;;;;5074592;28;20028;-71
2024/01/16 01:15:39;;;;;;;17.10;6.40;;;1.30;99.90;;;;;;5075237;28;20021;-70
2024/01/16 01:18:06;;;;;;;14.90;6.53;;;1.30;99.90;;;;;;5076034;28;20028;-72
2024/01/16 01:20:32;;;;;;;14.98;6.47;;;1.30;99.90;;;;;;5079591;28;20508;-71
2024/01/16 01:22:58;;;;;;;14.25;5.93;;;1.40;99.90;;;;;;5076628;28;20029;-70
2024/01/16 01:25:25;;;;;;;15.45;6.18;;;1.40;99.90;;;;;;5072865;28;20033;-71
2024/01/16 01:27:51;;;;;;;13.85;6.50;;;1.40;99.90;;;;;;5073267;28;20031;-71
2024/01/16 01:30:18;;;;;;;19.38;6.50;;;1.40;99.90;;;;;;5073366;28;20478;-71
2024/01/16 01:32:44;;;;;;;13.68;6.53;;;1.40;99.90;;;;;;5073142;28;20028;-71
2024/01/16 01:35:11;;;;;;;11.60;6.00;;;1.40;99.90;;;;;;5073600;28;20441;-71
2024/01/16 01:37:37;;;;;;;12.20;6.18;;;1.50;99.90;;;;;;5076021;28;20020;-71
2024/01/16 01:40:03;;;;;;;11.98;5.50;;;1.50;99.90;;;;;;5072743;28;20438;-70
2024/01/16 01:42:28;;;;;;;9.90;5.90;;;1.40;99.90;;;;;;5072877;28;20111;-71
2024/01/16 01:44:54;;;;;;;8.70;5.70;;;1.40;99.90;;;;;;5072614;28;20029;-72
2024/01/16 01:47:20;;;;;;;11.15;5.85;;;1.40;99.90;;;;;;5072641;28;20029;-70
2024/01/16 01:49:45;;;;;;;14.18;5.72;;;1.40;99.90;;;;;;5072897;28;20645;-69
2024/01/16 01:52:11;;;;;;;13.85;5.65;;;1.40;99.90;;;;;;5072599;28;20107;-70
2024/01/16 01:54:38;;;;;;;12.65;5.40;;;1.40;99.90;;;;;;5073387;28;20440;-71
2024/01/16 01:57:04;;;;;;;13.77;5.30;;;1.40;99.90;;;;;;5075200;28;20451;-71
2024/01/16 01:59:30;;;;;;;10.45;4.85;;;1.40;99.90;;;;;;5075014;28;20021;-71
2024/01/16 02:01:56;;;;;;;14.77;5.63;;;1.40;99.90;;;;;;5074491;28;20025;-72
2024/01/16 02:04:24;;;;;;;13.77;5.20;;;1.40;99.90;;;;;;5073378;28;20029;-70
2024/01/16 02:06:50;;;;;;;10.77;4.72;;;1.40;99.90;;;;;;5073415;28;20029;-70
2024/01/16 02:09:15;;;;;;;11.98;5.15;;;1.40;99.90;;;;;;5073556;28;20031;-72
2024/01/16 02:11:42;;;;;;;8.50;5.10;;;1.40;99.90;;;;;;5073167;28;20533;-72
2024/01/16 02:14:08;;;;;;;11.25;5.25;;;1.40;99.90;;;;;;5073284;28;20021;-71
2024/01/16 02:16:39;;;;;;;10.63;4.60;;;1.50;99.90;;;;;;5073204;28;20379;-74
2024/01/16 02:19:06;;;;;;;13.55;5.57;;;1.50;99.90;;;;;;5081343;28;20107;-73
2024/01/16 02:21:39;;;;;;;10.60;4.97;;;1.40;99.90;;;;;;5073647;28;20051;-75
2024/01/16 02:24:06;;;;;;;10.23;5.25;;;1.30;99.90;;;;;;5076914;28;20058;-75
2024/01/16 02:26:33;;;;;;;12.48;6.47;;;1.20;99.90;;;;;;5088469;28;20046;-75
2024/01/16 02:29:02;;;;;;;13.18;6.65;;;1.20;99.90;;;;;;5083714;28;20032;-76
2024/01/16 02:31:27;;;;;;;15.70;7.75;;;1.00;99.90;;;;;;5075442;28;20029;-75
2024/01/16 02:33:53;;;;;;;18.85;8.90;;;1.00;99.90;;;;;;5077175;28;20051;-75
2024/01/16 02:36:19;;;;;;;18.05;9.40;;;0.80;99.90;;;;;;5075128;28;20484;-75
2024/01/16 02:38:44;;;;;;;15.77;9.75;;;0.90;99.90;;;;;;5074249;28;20147;-74
2024/01/16 02:41:13;;;;;;;20.00;10.48;;;0.90;99.90;;;;;;5072804;28;20108;-75
2024/01/16 02:43:39;;;;;;;19.98;10.10;;;0.90;99.90;;;;;;5072964;28;20040;-74
2024/01/16 02:46:04;;;;;;;16.70;9.95;;;0.90;99.90;;;;;;5072161;28;20028;-74
2024/01/16 02:48:30;;;;;;;20.60;9.85;;;0.90;99.90;;;;;;5072627;28;20543;-74
2024/01/16 02:50:56;;;;;;;21.52;10.10;;;0.80;99.90;;;;;;5072184;28;20032;-73
2024/01/16 02:53:21;;;;;;;19.85;11.20;;;0.80;99.90;;;;;;5071943;28;20023;-73
2024/01/16 02:55:47;;;;;;;18.90;9.82;;;0.70;99.90;;;;;;5071721;28;20560;-72
2024/01/16 02:58:12;;;;;;;20.23;10.90;;;0.70;99.90;;;;;;5072597;28;20021;-73
2024/01/16 03:00:38;;;;;;;20.85;11.73;;;0.80;99.90;;;;;;5072381;28;20578;-74
2024/01/16 03:03:04;;;;;;;17.95;12.02;;;0.80;99.90;;;;;;5072820;28;20040;-73
2024/01/16 03:05:30;;;;;;;22.85;12.23;;;0.80;99.90;;;;;;5081916;28;20050;-74
2024/01/16 03:07:55;;;;;;;23.33;12.60;;;0.70;99.90;;;;;;5091181;28;20025;-74
2024/01/16 03:10:21;;;;;;;20.00;11.90;;;0.70;99.90;;;;;;5090831;28;20085;-75
2024/01/16 03:12:47;;;;;;;21.58;11.95;;;0.70;99.90;;;;;;5085767;28;20108;-72
2024/01/16 03:15:12;;;;;;;20.83;12.60;;;0.70;99.90;;;;;;5072246;28;20039;-74
2024/01/16 03:17:38;;;;;;;22.92;13.20;;;0.70;99.90;;;;;;5072050;28;20021;-74
2024/01/16 03:20:04;;;;;;;19.23;12.18;;;0.70;99.90;;;;;;5074703;28;20021;-78
2024/01/16 03:22:30;;;;;;;22.83;12.73;;;0.60;99.90;;;;;;5074197;28;20549;-75
2024/01/16 03:24:55;;;;;;;20.67;13.23;;;0.60;99.90;;;;;;5091233;28;20035;-75
2024/01/16 03:27:21;;;;;;;25.17;13.38;;;0.60;99.90;;;;;;5093916;28;20582;-75
2024/01/16 03:29:46;;;;;;;25.50;12.85;;;0.60;99.90;;;;;;5093445;28;20028;-75
2024/01/16 03:32:12;;;;;;;19.02;12.75;;;0.60;99.90;;;;;;5093737;28;20401;-73
2024/01/16 03:34:37;;;;;;;19.88;12.32;;;0.50;99.90;;;;;;5091217;28;20067;-72
2024/01/16 03:37:04;;;;;;;19.33;13.00;;;0.50;99.90;;;;;;5090881;28;20024;-73
2024/01/16 03:39:29;;;;;;;21.58;12.82;;;0.60;99.90;;;;;;5079791;28;20032;-73
2024/01/16 03:41:55;;;;;;;20.38;13.45;;;0.60;99.90;;;;;;5072447;28;20491;-74
2024/01/16 03:44:20;;;;;;;24.35;13.63;;;0.60;99.90;;;;;;5071810;28;20056;-74
2024/01/16 03:46:46;;;;;;;23.83;13.15;;;0.70;99.90;;;;;;5072327;28;20530;-73
2024/01/16 03:49:11;;;;;;;22.63;12.88;;;0.70;99.90;;;;;;5071451;28;20032;-74
2024/01/16 03:51:37;;;;;;;20.85;13.40;;;0.80;99.90;;;;;;5071502;28;20031;-71
2024/01/16 03:54:02;;;;;;;21.48;13.02;;;0.80;99.90;;;;;;5071349;28;20128;-72
2024/01/16 03:56:28;;;;;;;20.38;13.30;;;0.80;99.90;;;;;;5071959;28;20027;-74
2024/01/16 03:58:54;;;;;;;23.08;13.82;;;0.80;99.90;;;;;;5074369;28;20421;-73
2024/01/16 04:01:30;;;;;;;21.60;13.95;;;0.80;99.90;;;;;;5077734;28;20036;-78
2024/01/16 04:03:56;;;;;;;24.45;13.38;;;0.90;99.90;;;;;;5071772;28;20028;-74
2024/01/16 04:06:21;;;;;;;23.63;14.60;;;0.80;99.90;;;;;;5072769;28;20080;-74
2024/01/16 04:08:47;;;;;;;22.30;14.10;;;0.80;99.90;;;;;;5071736;28;20090;-74
2024/01/16 04:11:13;;;;;;;22.38;13.98;;;0.80;99.90;;;;;;5072653;28;20024;-74
2024/01/16 04:13:39;;;;;;;20.95;13.20;;;0.70;99.90;;;;;;5072554;28;20221;-72
2024/01/16 04:16:05;;;;;;;20.13;14.05;;;0.80;99.90;;;;;;5071159;28;20028;-72
2024/01/16 04:18:38;;;;;;;23.67;14.82;;;0.70;99.90;;;;;;5071557;28;20025;-75
2024/01/16 04:21:04;;;;;;;22.05;13.30;;;0.70;99.90;;;;;;5071480;28;20460;-74
2024/01/16 04:23:30;;;;;;;22.38;13.73;;;0.80;99.90;;;;;;5071319;28;20060;-71
2024/01/16 04:25:55;;;;;;;24.13;13.80;;;0.90;99.90;;;;;;5071252;28;20384;-75
2024/01/16 04:28:21;;;;;;;23.45;13.75;;;0.80;99.90;;;;;;5072206;28;20388;-73
2024/01/16 04:30:47;;;;;;;21.45;12.77;;;0.90;99.90;;;;;;5072211;28;20017;-73
2024/01/16 04:33:12;;;;;;;23.63;13.35;;;0.80;99.90;;;;;;5072420;28;20090;-72
2024/01/16 04:35:38;;;;;;;21.85;12.55;;;0.80;99.90;;;;;;5070914;28;20542;-71
2024/01/16 04:38:04;;;;;;;17.00;11.82;;;0.80;99.90;;;;;;5071092;28;20017;-71
2024/01/16 04:40:29;;;;;;;21.48;12.23;;;0.70;99.90;;;;;;5073615;28;20399;-73
2024/01/16 04:42:55;;;;;;;17.42;11.65;;;0.70;99.90;;;;;;5074828;28;20036;-73
2024/01/16 04:45:20;;;;;;;21.38;11.50;;;0.60;99.90;;;;;;5071843;28;20060;-73
2024/01/16 04:47:46;;;;;;;20.58;11.10;;;0.60;99.90;;;;;;5072576;28;20390;-71
2024/01/16 04:50:12;;;;;;;20.38;11.45;;;0.60;99.90;;;;;;5075127;28;20084;-73
2024/01/16 04:52:37;;;;;;;20.13;10.80;;;0.50;99.90;;;;;;5075401;28;20033;-72
2024/01/16 04:55:03;;;;;;;18.48;11.30;;;0.50;99.90;;;;;;5077222;28;20032;-77
2024/01/16 04:57:29;;;;;;;21.10;10.38;;;0.50;99.90;;;;;;5074901;28;20486;-74
2024/01/16 04:59:55;;;;;;;20.23;11.05;;;0.50;99.90;;;;;;5075140;28;20021;-73
2024/01/16 05:02:20;;;;;;;16.80;10.55;;;0.50;99.90;;;;;;5076432;28;20035;-73
2024/01/16 05:04:49;;;;;;;20.90;10.95;;;0.50;99.90;;;;;;5074087;28;20025;-71
2024/01/16 05:07:15;;;;;;;17.67;10.52;;;0.50;99.90;;;;;;5074361;28;20017;-72
2024/01/16 05:09:40;;;;;;;22.52;11.10;;;0.50;99.90;;;;;;5077553;28;20020;-75
2024/01/16 05:12:06;;;;;;;18.50;10.88;;;0.40;99.90;;;;;;5080081;28;20031;-74
2024/01/16 05:14:32;;;;;;;17.90;11.38;;;0.40;99.90;;;;;;5078541;28;20097;-73
2024/01/16 05:16:57;;;;;;;17.88;10.88;;;0.50;99.90;;;;;;5078132;28;20109;-75
2024/01/16 05:19:23;;;;;;;20.02;10.93;;;0.60;99.90;;;;;;5076498;28;20023;-73
2024/01/16 05:21:49;;;;;;;21.17;10.60;;;0.60;99.90;;;;;;5074368;28;20082;-74
2024/01/16 05:24:14;;;;;;;20.08;11.45;;;0.60;99.90;;;;;;5073718;28;20037;-73
2024/01/16 05:26:40;;;;;;;19.75;11.82;;;0.60;99.90;;;;;;5074374;28;20031;-73
2024/01/16 05:29:06;;;;;;;21.98;12.07;;;0.50;99.90;;;;;;5074162;28;20036;-72
2024/01/16 05:31:32;;;;;;;18.85;11.93;;;0.70;99.90;;;;;;5074162;28;20021;-72
2024/01/16 05:33:58;;;;;;;21.80;13.05;;;0.60;99.90;;;;;;5074096;28;20040;-72
2024/01/16 05:36:24;;;;;;;20.38;12.85;;;0.60;99.90;;;;;;5074117;28;20021;-73
2024/01/16 05:38:50;;;;;;;26.83;13.68;;;0.70;99.90;;;;;;5073651;28;20547;-74
2024/01/16 05:41:16;;;;;;;20.15;12.13;;;0.80;99.90;;;;;;5073321;28;20078;-73
2024/01/16 05:43:41;;;;;;;18.13;10.93;;;0.80;99.90;;;;;;5073530;28;20016;-73
2024/01/16 05:46:07;;;;;;;13.20;9.63;;;0.80;99.90;;;;;;5073275;28;20028;-71
2024/01/16 05:48:32;;;;;;;14.52;9.13;;;0.90;99.90;;;;;;5075336;28;20021;-73
2024/01/16 05:50:58;;;;;;;17.40;9.43;;;1.00;99.90;;;;;;5073572;28;20028;-73
2024/01/16 05:53:23;;;;;;;16.05;7.80;;;1.10;99.90;;;;;;5074019;28;20060;-73
2024/01/16 05:55:49;;;;;;;14.48;7.78;;;0.90;99.90;;;;;;5074240;28;20020;-73
2024/01/16 05:58:15;;;;;;;19.30;8.18;;;0.80;99.90;;;;;;5074825;28;20027;-74
2024/01/16 06:00:40;;;;;;;13.40;7.85;;;0.80;99.90;;;;;;5075300;28;20021;-75
2024/01/16 06:03:06;;;;;;;20.00;8.43;;;0.80;99.90;;;;;;5073498;28;20064;-72
2024/01/16 06:05:32;;;;;;;11.02;6.30;;;0.80;99.90;;;;;;5072973;28;20028;-72
2024/01/16 06:07:57;;;;;;;16.42;6.95;;;0.80;99.90;;;;;;5073010;28;20345;-73
2024/01/16 06:10:23;;;;;;;14.82;6.03;;;0.80;99.90;;;;;;5072923;28;20021;-73
2024/01/16 06:12:49;;;;;;;18.23;5.78;;;0.70;99.90;;;;;;5073355;28;20024;-72
2024/01/16 06:15:14;;;;;;;11.45;5.38;;;0.80;99.90;;;;;;5074344;28;20021;-74
2024/01/16 06:17:40;;;;;;;16.38;4.07;;;0.70;99.90;;;;;;5077408;28;20024;-75
2024/01/16 06:20:06;;;;;;;14.45;4.38;;;0.90;99.90;;;;;;5076026;28;20025;-77
2024/01/16 06:22:32;;;;;;;17.42;4.13;;;0.80;99.90;;;;;;5072533;28;20032;-77
2024/01/16 06:24:57;;;;;;;12.70;4.00;;;0.80;99.90;;;;;;5071402;28;20046;-75
2024/01/16 06:27:23;;;;;;;16.42;3.42;;;0.90;99.90;;;;;;5073722;28;20055;-76
2024/01/16 06:29:49;;;;;;;13.35;4.40;;;0.80;99.90;;;;;;5072909;28;20174;-76
2024/01/16 06:32:14;;;;;;;9.13;3.90;;;0.90;99.90;;;;;;5074710;28;20081;-76
2024/01/16 06:34:40;;;;;;;12.68;3.85;;;0.90;99.90;;;;;;5071972;28;20020;-76
2024/01/16 06:37:06;;;;;;;12.43;3.85;;;0.90;99.90;;;;;;5072251;28;20052;-74
2024/01/16 06:39:31;;;;;;;14.45;3.60;;;1.00;99.90;;;;;;5071372;28;20085;-76
2024/01/16 06:41:57;;;;;;;16.35;4.55;;;1.00;99.90;;;;;;5072750;28;20078;-76
2024/01/16 06:44:22;;;;;;;19.02;4.95;;;1.00;99.90;;;;;;5071515;28;20528;-75
2024/01/16 06:46:48;;;;;;;12.68;4.25;;;1.00;99.90;;;;;;5073798;28;20024;-77
2024/01/16 06:49:14;;;;;;;10.00;4.35;;;1.00;99.90;;;;;;5070785;28;20036;-76
2024/01/16 06:51:39;;;;;;;17.27;5.18;;;1.00;99.90;;;;;;5071854;28;20032;-74
2024/01/16 06:54:05;;;;;;;12.90;4.18;;;1.00;99.90;;;;;;5071845;28;20098;-74
2024/01/16 06:56:31;;;;;;;19.27;5.28;;;1.00;99.90;;;;;;5075651;28;20024;-76
2024/01/16 06:58:56;;;;;;;26.50;6.40;;;1.10;99.90;;;;;;5075958;28;20020;-76
2024/01/16 07:01:22;;;;;;;19.13;5.20;;;1.10;99.90;;;;;;5078555;28;20074;-75
2024/01/16 07:03:48;;;;;;;17.17;5.22;;;1.10;99.90;;;;;;5071986;28;20024;-73
2024/01/16 07:06:13;;;;;;;18.15;5.65;;;1.10;99.90;;;;;;5078393;28;20506;-75
2024/01/16 07:08:39;;;;;;;18.73;4.93;;;1.10;99.90;;;;;;5079978;28;20107;-75
2024/01/16 07:11:07;;;;;;;22.75;5.63;;;1.10;99.90;;;;;;5081918;28;20035;-76
2024/01/16 07:13:34;;;;;;;25.50;5.68;;;1.00;99.90;;;;;;5074449;28;20020;-74
2024/01/16 07:15:59;;;;;;;18.88;5.40;;;1.00;99.90;;;;;;5072200;28;20070;-75
2024/01/16 07:18:27;;;;;;;19.90;5.90;;;1.10;99.90;;;;;;5071556;28;20481;-75
2024/01/16 07:20:52;;;;;;;20.00;6.65;;;1.00;99.90;;;;;;5071920;28;20017;-74
2024/01/16 07:23:18;;;;;;;16.17;5.78;;;1.10;99.90;;;;;;5075293;28;20055;-78
2024/01/16 07:25:44;;;;;;;18.13;5.88;;;1.00;99.90;;;;;;5071612;28;20036;-75
2024/01/16 07:28:09;;;;;;;15.90;4.60;;;1.10;99.90;;;;;;5071481;28;20426;-74
2024/01/16 07:30:36;;;;;;;15.30;4.32;;;1.00;99.90;;;;;;5071979;28;20024;-78
2024/01/16 07:33:03;;;;;;;18.58;4.93;;;1.00;99.90;;;;;;5077871;28;20051;-78
2024/01/16 07:35:28;;;;;;;15.60;4.68;;;1.00;99.90;;;;;;5073589;28;20044;-74
2024/01/16 07:37:54;;;;;;;14.18;5.03;;;1.10;99.90;;;;;;5081080;28;20541;-74
2024/01/16 07:40:20;;;;;;;18.55;5.38;;;1.20;99.90;;;;;;5076101;28;20025;-74
2024/01/16 07:42:46;;;;;;;16.10;5.20;;;1.30;99.90;;;;;;5099267;28;20043;-74
2024/01/16 07:45:11;;;;;;;17.40;4.63;;;1.40;99.90;;;;;;5094139;28;20020;-75
2024/01/16 07:47:37;;;;;;;14.27;3.90;;;1.40;99.90;;;;;;5091603;28;20024;-73
2024/01/16 07:50:03;;;;;;;9.38;3.95;;;1.30;99.90;;;;;;5087987;28;20068;-73
2024/01/16 07:52:29;;;;;;;11.45;4.10;;;1.20;99.90;;;;;;5072350;28;20056;-73
2024/01/16 07:54:54;;;;;;;12.75;4.53;;;1.40;99.90;;;;;;5071197;28;20017;-74
2024/01/16 07:57:20;;;;;;;11.27;4.30;;;1.20;99.90;;;;;;5073401;28;20483;-74
2024/01/16 07:59:46;;;;;;;17.17;5.47;;;1.20;99.90;;;;;;5074455;28;20021;-75
2024/01/16 08:02:12;;;;;;;9.90;4.15;;;1.20;99.90;;;;;;5075706;28;20079;-75
2024/01/16 08:04:37;;;;;;;15.60;4.40;;;1.10;99.90;;;;;;5072366;28;20450;-73
2024/01/16 08:07:03;;;;;;;10.73;3.67;;;1.20;99.90;;;;;;5076780;28;20029;-75
2024/01/16 08:09:29;;;;;;;15.23;4.00;;;1.30;99.90;;;;;;5076311;28;20024;-74
2024/01/16 08:11:55;;;;;;;12.35;4.32;;;1.30;99.90;;;;;;5075881;28;20098;-75
2024/01/16 08:14:20;;;;;;;13.88;3.92;;;1.30;99.90;;;;;;5075208;28;20091;-72
2024/01/16 08:16:46;;;;;;;16.02;5.10;;;1.20;99.90;;;;;;5077846;28;20037;-73
2024/01/16 08:19:13;;;;;;;18.55;4.57;;;1.20;99.90;;;;;;5083464;28;20079;-74
2024/01/16 08:21:38;;;;;;;13.48;4.07;;;1.30;99.90;;;;;;5084331;28;20039;-74
2024/01/16 08:24:04;;;;;;;13.52;3.80;;;1.30;99.90;;;;;;5074869;28;20419;-75
2024/01/16 08:26:30;;;;;;;13.85;3.72;;;1.30;99.90;;;;;;5076943;28;20028;-74
2024/01/16 08:28:55;;;;;;;21.08;5.50;;;1.40;99.90;;;;;;5076154;28;20551;-73
2024/01/16 08:31:21;;;;;;;14.57;3.83;;;1.40;99.90;;;;;;5075303;28;20028;-73
2024/01/16 08:33:47;;;;;;;11.68;3.90;;;1.40;99.90;;;;;;5075122;28;20565;-72
2024/01/16 08:36:15;;;;;;;15.13;4.13;;;1.30;99.90;;;;;;5075698;28;20026;-73
2024/01/16 08:38:40;;;;;;;15.32;4.63;;;1.40;99.90;;;;;;5073971;28;20025;-72
2024/01/16 08:41:06;;;;;;;12.10;4.45;;;1.30;99.90;;;;;;5075336;28;20070;-73
2024/01/16 08:43:35;;;;;;;13.57;4.53;;;1.40;99.90;;;;;;5074688;28;20020;-73
2024/01/16 08:46:01;;;;;;;15.05;5.03;;;1.40;99.90;;;;;;5075230;28;20043;-73
2024/01/16 08:48:26;;;;;;;20.70;5.05;;;1.40;99.90;;;;;;5075768;28;20046;-75
2024/01/16 08:50:54;;;;;;;11.63;4.50;;;1.40;99.90;;;;;;5075831;28;20020;-73
2024/01/16 08:53:19;;;;;;;13.85;4.43;;;1.40;99.90;;;;;;5074888;28;20028;-73
2024/01/16 08:55:45;;;;;;;16.08;4.47;;;1.50;99.90;;;;;;5074299;28;20036;-73
2024/01/16 08:58:11;;;;;;;17.45;4.28;;;1.40;99.90;;;;;;5075188;28;20017;-71
2024/01/16 09:00:37;;;;;;;20.27;4.53;;;1.50;99.90;;;;;;5074899;28;20130;-72
2024/01/16 09:03:04;;;;;;;18.17;3.90;;;1.60;99.90;;;;;;5076434;28;20032;-73
2024/01/16 09:05:29;;;;;;;16.85;4.05;;;1.60;99.90;;;;;;5073572;28;20028;-72
2024/01/16 09:07:55;;;;;;;12.02;3.88;;;1.60;99.90;;;;;;5081389;28;20025;-71
2024/01/16 09:10:20;;;;;;;20.58;3.90;;;1.60;99.90;;;;;;5074130;28;20028;-70
2024/01/16 09:12:48;;;;;;;18.35;3.78;;;1.50;99.90;;;;;;5081786;28;20084;-73
2024/01/16 09:15:14;;;;;;;13.50;3.78;;;1.50;99.90;;;;;;5076071;28;20024;-72
2024/01/16 09:17:39;;;;;;;16.65;4.03;;;1.50;99.90;;;;;;5079865;28;20029;-73
2024/01/16 09:20:06;;;;;;;16.52;3.97;;;1.50;99.90;;;;;;5076435;28;20024;-77
2024/01/16 09:22:32;;;;;;;20.60;4.10;;;1.60;99.90;;;;;;5078202;28;20036;-77
2024/01/16 09:24:58;;;;;;;18.08;5.28;;;1.60;99.90;;;;;;5074190;28;20052;-75
2024/01/16 09:27:23;;;;;;;21.02;4.93;;;1.70;99.90;;;;;;5074092;28;20016;-76
2024/01/16 09:29:49;;;;;;;18.08;3.92;;;1.70;99.90;;;;;;5074425;28;20078;-74
2024/01/16 09:32:14;;;;;;;20.80;4.13;;;1.70;99.90;;;;;;5075026;28;20075;-77
2024/01/16 09:34:40;;;;;;;15.30;3.58;;;1.80;99.90;;;;;;5072990;28;20033;-78
2024/01/16 09:37:05;;;;;;;20.35;4.45;;;1.80;99.90;;;;;;5076814;28;20020;-77
2024/01/16 09:39:32;;;;;;;18.50;3.60;;;1.70;99.90;;;;;;5073181;28;20102;-79
2024/01/16 09:42:01;;;;;;;22.30;3.95;;;1.80;99.90;;;;;;5077571;28;20047;-80
2024/01/16 09:44:28;;;;;;;17.50;3.90;;;1.90;99.90;;;;;;5078871;28;20381;-79
2024/01/16 09:46:56;;;;;;;18.80;4.40;;;2.00;99.90;;;;;;5076610;28;20123;-78
2024/01/16 09:49:23;;;;;;;16.63;3.28;;;1.80;99.90;;;;;;5079104;28;20028;-78
2024/01/16 09:51:49;;;;;;;17.23;3.63;;;1.90;99.90;;;;;;5074257;28;20033;-74
2024/01/16 09:54:15;;;;;;;14.02;3.72;;;1.90;99.90;;;;;;5075871;28;20376;-72
2024/01/16 09:56:45;;;;;;;14.25;3.55;;;2.00;99.90;;;;;;5073133;28;20021;-73
2024/01/16 09:59:17;;;;;;;24.35;5.13;;;1.90;99.90;;;;;;5073589;28;20020;-74
2024/01/16 10:01:43;;;;;;;17.38;3.65;;;1.90;99.90;;;;;;5073319;28;20438;-72
2024/01/16 10:04:09;;;;;;;22.25;3.47;;;2.00;99.90;;;;;;5073563;28;20032;-74
2024/01/16 10:06:36;;;;;;;16.00;3.55;;;2.10;99.90;;;;;;5075361;28;20454;-72
2024/01/16 10:09:02;;;;;;;14.82;3.42;;;2.10;99.90;;;;;;5073211;28;20090;-77
2024/01/16 10:11:29;;;;;;;13.73;3.22;;;2.10;99.90;;;;;;5072810;28;20499;-77
2024/01/16 10:13:56;;;;;;;12.30;3.15;;;2.10;99.90;;;;;;5076314;28;20468;-80
2024/01/16 10:16:22;;;;;;;9.35;2.58;;;2.20;99.90;;;;;;5076505;28;20040;-77
2024/01/16 10:18:48;;;;;;;20.50;3.42;;;2.20;99.90;;;;;;5073716;28;20016;-77
2024/01/16 10:21:24;;;;;;;14.63;3.50;;;2.10;99.90;;;;;;5073228;28;20020;-76
2024/01/16 10:23:50;;;;;;;13.93;2.80;;;2.20;99.90;;;;;;5076412;28;20115;-73
2024/01/16 10:26:17;;;;;;;15.38;2.95;;;2.20;99.90;;;;;;5078019;28;20185;-72
2024/01/16 10:28:43;;;;;;;16.58;3.13;;;2.30;99.90;;;;;;5075174;28;20021;-73
2024/01/16 10:31:16;;;;;;;16.05;2.67;;;2.40;99.90;;;;;;5076507;28;20082;-74
2024/01/16 10:33:42;;;;;;;11.82;2.53;;;2.50;99.90;;;;;;5075938;28;20375;-73
2024/01/16 10:36:12;;;;;;;10.70;2.35;;;2.50;99.90;;;;;;5076203;28;20024;-77
2024/01/16 10:38:39;;;;;;;14.38;2.72;;;2.50;99.90;;;;;;5076759;28;20020;-76
2024/01/16 10:41:25;;;;;;;13.73;2.80;;;2.60;99.90;;;;;;5076173;28;20028;-76
2024/01/16 10:44:04;;;;;;;13.57;2.33;;;2.60;99.90;;;;;;5084569;28;20028;-74
2024/01/16 10:46:29;;;;;;;13.13;2.88;;;2.60;99.90;;;;;;5096217;28;20032;-76
2024/01/16 10:49:03;;;;;;;14.38;2.75;;;2.70;99.90;;;;;;5086647;28;20620;-73
2024/01/16 10:51:30;;;;;;;10.77;2.25;;;2.60;99.90;;;;;;5077327;28;20520;-73
2024/01/16 10:53:59;;;;;;;16.48;2.97;;;2.60;99.90;;;;;;5077513;28;20024;-75
2024/01/16 10:56:27;;;;;;;17.58;3.55;;;2.60;99.90;;;;;;5077326;28;20480;-76
2024/01/16 10:59:24;;;;;;;19.58;2.90;;;2.60;99.90;;;;;;5072874;28;20165;-74
2024/01/16 11:01:54;;;;;;;20.60;2.80;;;2.70;99.90;;;;;;5068737;28;20119;-78
2024/01/16 11:04:20;;;;;;;21.85;3.05;;;2.80;99.90;;;;;;5072853;28;20024;-75
2024/01/16 11:06:47;;;;;;;15.63;2.75;;;2.80;99.90;;;;;;5072686;28;20510;-74
2024/01/16 11:09:16;;;;;;;10.02;2.40;;;2.90;99.90;;;;;;5072213;28;20028;-73
2024/01/16 11:11:45;;;;;;;20.95;3.22;;;3.00;99.90;;;;;;5073617;28;20499;-72
2024/01/16 11:14:12;;;;;;;16.10;2.70;;;3.00;99.90;;;;;;5070007;28;20013;-72
2024/01/16 11:16:40;;;;;;;15.57;2.95;;;3.00;99.90;;;;;;5071815;28;20025;-74
2024/01/16 11:19:08;;;;;;;14.93;2.75;;;3.00;99.90;;;;;;5070001;28;20062;-73
2024/01/16 11:21:36;;;;;;;22.65;2.75;;;2.90;99.90;;;;;;5070614;28;20025;-74
2024/01/16 11:24:02;;;;;;;11.05;2.03;;;2.90;99.90;;;;;;5070666;28;20032;-74
2024/01/16 11:26:33;;;;;;;15.30;2.67;;;3.00;99.90;;;;;;5071020;28;20031;-74
2024/01/16 11:29:00;;;;;;;15.57;2.58;;;3.20;99.90;;;;;;5076643;28;20037;-72
2024/01/16 11:31:32;;;;;;;16.90;2.25;;;3.10;99.90;;;;;;5069995;28;20095;-72
2024/01/16 11:33:59;;;;;;;16.27;2.28;;;3.10;99.90;;;;;;5069273;28;20083;-72
2024/01/16 11:36:54;;;;;;;17.35;2.60;;;3.10;99.90;;;;;;5072911;28;20012;-72
2024/01/16 11:39:21;;;;;;;;;;;3.00;99.90;;;;;;5058087;28;20028;-71
2024/01/16 11:41:57;;;;;;;20.02;2.70;;;2.90;99.90;;;;;;5069059;28;19919;-72
2024/01/16 11:44:46;;;;;;;20.67;3.05;;;2.90;99.90;;;;;;5066365;28;20162;-72
2024/01/16 11:47:19;;;;;;;15.40;3.15;;;3.00;99.90;;;;;;5067759;28;20106;-73
2024/01/16 11:49:46;;;;;;;17.77;3.08;;;2.90;99.90;;;;;;5069808;28;20028;-72
2024/01/16 11:52:13;;;;;;;15.43;2.95;;;3.00;99.90;;;;;;5069396;28;20020;-73
2024/01/16 11:54:40;;;;;;;16.85;2.60;;;3.00;99.90;;;;;;5068428;28;20463;-73
2024/01/16 11:57:25;;;;;;;26.05;3.70;;;3.10;99.90;;;;;;5068248;28;20024;-74
2024/01/16 12:00:07;;;;;;;22.58;3.45;;;3.10;99.90;;;;;;5068500;28;20321;-73
2024/01/16 12:02:44;;;;;;;17.15;3.58;;;3.10;99.90;;;;;;5068194;28;20036;-73
2024/01/16 12:05:12;;;;;;;17.02;3.15;;;3.10;99.90;;;;;;5067628;28;20105;-72
2024/01/16 12:07:52;;;;;;;19.73;2.97;;;3.10;99.90;;;;;;5069065;28;20073;-72
2024/01/16 12:10:27;;;;;;;18.92;3.55;;;3.20;99.90;;;;;;5070532;28;20039;-72
2024/01/16 12:12:57;;;;;;;;;;;3.30;99.90;;;;;;5070602;28;20398;-74
2024/01/16 12:15:23;;;;;;;21.67;6.50;;;3.30;99.90;;;;;;5071850;28;20411;-73
2024/01/16 12:18:01;;;;;;;24.95;7.55;;;3.20;99.90;;;;;;5071661;28;20160;-72
2024/01/16 12:20:31;;;;;;;24.33;4.85;;;3.30;99.90;;;;;;5069981;28;20590;-71
2024/01/16 12:23:04;;;;;;;42.90;11.93;;;3.30;99.90;;;;;;5070173;28;20052;-72
2024/01/16 12:25:31;;;;;;;21.75;5.22;;;3.30;99.90;;;;;;5069516;28;20025;-75
2024/01/16 12:28:02;;;;;;;136.68;47.70;;;3.40;99.90;;;;;;5070895;28;20040;-73
2024/01/16 12:30:39;;;;;;;24.75;3.75;;;3.40;99.90;;;;;;5078160;28;20028;-74
2024/01/16 12:33:12;;;;;;;29.90;4.35;;;3.30;99.90;;;;;;5051971;28;20032;-74
2024/01/16 12:35:39;;;;;;;25.05;5.60;;;3.30;99.90;;;;;;5069123;28;20028;-73
2024/01/16 12:38:09;;;;;;;16.13;4.30;;;3.30;99.90;;;;;;5070011;28;20095;-74
2024/01/16 12:40:36;;;;;;;15.02;2.88;;;3.30;99.90;;;;;;5071236;28;20151;-74
2024/01/16 12:43:03;;;;;;;15.93;2.45;;;3.20;99.90;;;;;;5071588;28;20491;-73